sensor_id;sensor_type;location;lat;lon;timestamp;P1;durP1;ratioP1;P2;durP2;ratioP2
20802;SDS011;10562;-33.856;151.182;2022-09-03T00:01:07;195.70;;;182.38;;
20802;SDS011;10562;-33.856;151.182;2022-09-03T00:03:44;182.13;;;169.60;;
20802;SDS011;10562;-33.856;151.182;2022-09-03T00:06:21;174.15;;;161.27;;
20802;SDS011;10562;-33.856;151.182;2022-09-03T00:08:57;164.00;;;152.48;;
20802;SDS011;10562;-33.856;151.182;2022-09-03T00:11:34;178.40;;;165.50;;
20802;SDS011;10562;-33.856;151.182;2022-09-03T00:14:17;182.73;;;169.52;;
20802;SDS011;10562;-33.856;151.182;2022-09-03T00:16:52;189.10;;;175.93;;
20802;SDS011;10562;-33.856;151.182;2022-09-03T00:19:27;180.23;;;167.48;;
20802;SDS011;10562;-33.856;151.182;2022-09-03T00:22:03;185.75;;;172.23;;
20802;SDS011;10562;-33.856;151.182;2022-09-03T00:24:38;171.30;;;158.95;;
20802;SDS011;10562;-33.856;151.182;2022-09-03T00:27:12;157.25;;;145.38;;
20802;SDS011;10562;-33.856;151.182;2022-09-03T00:29:48;149.05;;;138.32;;
20802;SDS011;10562;-33.856;151.182;2022-09-03T00:32:23;104.18;;;95.97;;
20802;SDS011;10562;-33.856;151.182;2022-09-03T00:34:59;122.80;;;113.85;;
20802;SDS011;10562;-33.856;151.182;2022-09-03T00:37:34;141.68;;;131.02;;
20802;SDS011;10562;-33.856;151.182;2022-09-03T00:40:06;136.73;;;126.05;;
20802;SDS011;10562;-33.856;151.182;2022-09-03T00:42:47;118.20;;;109.55;;
20802;SDS011;10562;-33.856;151.182;2022-09-03T00:45:28;72.60;;;66.50;;
20802;SDS011;10562;-33.856;151.182;2022-09-03T00:48:07;55.78;;;50.50;;
20802;SDS011;10562;-33.856;151.182;2022-09-03T00:50:49;55.13;;;49.88;;
20802;SDS011;10562;-33.856;151.182;2022-09-03T00:53:37;74.80;;;67.85;;
20802;SDS011;10562;-33.856;151.182;2022-09-03T00:56:20;87.93;;;80.72;;
20802;SDS011;10562;-33.856;151.182;2022-09-03T00:59:02;56.17;;;50.85;;
20802;SDS011;10562;-33.856;151.182;2022-09-03T01:01:43;35.20;;;30.40;;
20802;SDS011;10562;-33.856;151.182;2022-09-03T01:04:26;30.70;;;24.30;;
20802;SDS011;10562;-33.856;151.182;2022-09-03T01:07:07;20.98;;;18.33;;
20802;SDS011;10562;-33.856;151.182;2022-09-03T01:09:48;21.27;;;19.02;;
20802;SDS011;10562;-33.856;151.182;2022-09-03T01:12:29;33.10;;;22.63;;
20802;SDS011;10562;-33.856;151.182;2022-09-03T01:15:09;20.25;;;16.60;;
20802;SDS011;10562;-33.856;151.182;2022-09-03T01:17:48;25.10;;;19.98;;
20802;SDS011;10562;-33.856;151.182;2022-09-03T01:20:33;22.73;;;20.30;;
20802;SDS011;10562;-33.856;151.182;2022-09-03T01:23:23;23.52;;;21.08;;
20802;SDS011;10562;-33.856;151.182;2022-09-03T01:26:30;17.35;;;9.38;;
20802;SDS011;10562;-33.856;151.182;2022-09-03T01:29:17;16.70;;;8.40;;
20802;SDS011;10562;-33.856;151.182;2022-09-03T01:31:55;12.13;;;7.95;;
20802;SDS011;10562;-33.856;151.182;2022-09-03T01:34:35;12.98;;;4.50;;
20802;SDS011;10562;-33.856;151.182;2022-09-03T01:37:20;14.73;;;7.43;;
20802;SDS011;10562;-33.856;151.182;2022-09-03T01:40:02;18.98;;;6.28;;
20802;SDS011;10562;-33.856;151.182;2022-09-03T01:42:42;17.33;;;11.63;;
20802;SDS011;10562;-33.856;151.182;2022-09-03T01:45:39;23.08;;;16.15;;
20802;SDS011;10562;-33.856;151.182;2022-09-03T01:48:20;21.98;;;19.52;;
20802;SDS011;10562;-33.856;151.182;2022-09-03T01:51:12;27.38;;;19.02;;
20802;SDS011;10562;-33.856;151.182;2022-09-03T01:56:53;14.77;;;8.90;;
20802;SDS011;10562;-33.856;151.182;2022-09-03T01:59:40;19.60;;;13.73;;
20802;SDS011;10562;-33.856;151.182;2022-09-03T02:02:19;17.63;;;11.63;;
20802;SDS011;10562;-33.856;151.182;2022-09-03T02:04:55;22.38;;;14.23;;
20802;SDS011;10562;-33.856;151.182;2022-09-03T02:07:29;24.58;;;16.63;;
20802;SDS011;10562;-33.856;151.182;2022-09-03T02:10:03;15.95;;;9.60;;
20802;SDS011;10562;-33.856;151.182;2022-09-03T02:12:36;18.13;;;8.90;;
20802;SDS011;10562;-33.856;151.182;2022-09-03T02:15:10;15.27;;;9.80;;
20802;SDS011;10562;-33.856;151.182;2022-09-03T02:17:44;25.50;;;11.23;;
20802;SDS011;10562;-33.856;151.182;2022-09-03T02:20:17;21.30;;;13.55;;
20802;SDS011;10562;-33.856;151.182;2022-09-03T02:22:51;22.55;;;14.15;;
20802;SDS011;10562;-33.856;151.182;2022-09-03T02:25:24;19.42;;;11.38;;
20802;SDS011;10562;-33.856;151.182;2022-09-03T02:28:01;14.18;;;9.10;;
20802;SDS011;10562;-33.856;151.182;2022-09-03T02:30:34;12.38;;;4.55;;
20802;SDS011;10562;-33.856;151.182;2022-09-03T02:33:07;10.68;;;4.20;;
20802;SDS011;10562;-33.856;151.182;2022-09-03T02:35:38;10.13;;;5.70;;
20802;SDS011;10562;-33.856;151.182;2022-09-03T02:38:10;13.55;;;7.03;;
20802;SDS011;10562;-33.856;151.182;2022-09-03T02:40:42;15.55;;;8.00;;
20802;SDS011;10562;-33.856;151.182;2022-09-03T02:43:14;14.00;;;6.60;;
20802;SDS011;10562;-33.856;151.182;2022-09-03T02:45:48;10.55;;;5.00;;
20802;SDS011;10562;-33.856;151.182;2022-09-03T02:48:24;6.22;;;3.33;;
20802;SDS011;10562;-33.856;151.182;2022-09-03T02:50:55;8.77;;;2.35;;
20802;SDS011;10562;-33.856;151.182;2022-09-03T02:53:26;8.73;;;3.15;;
20802;SDS011;10562;-33.856;151.182;2022-09-03T02:55:59;9.13;;;3.30;;
20802;SDS011;10562;-33.856;151.182;2022-09-03T02:58:34;9.52;;;3.83;;
20802;SDS011;10562;-33.856;151.182;2022-09-03T03:01:05;5.65;;;2.97;;
20802;SDS011;10562;-33.856;151.182;2022-09-03T03:03:38;9.48;;;2.80;;
20802;SDS011;10562;-33.856;151.182;2022-09-03T03:06:08;6.68;;;2.20;;
20802;SDS011;10562;-33.856;151.182;2022-09-03T03:08:40;9.07;;;2.03;;
20802;SDS011;10562;-33.856;151.182;2022-09-03T03:11:12;6.15;;;1.65;;
20802;SDS011;10562;-33.856;151.182;2022-09-03T03:13:43;6.75;;;1.67;;
20802;SDS011;10562;-33.856;151.182;2022-09-03T03:16:15;5.10;;;1.40;;
20802;SDS011;10562;-33.856;151.182;2022-09-03T03:18:48;9.00;;;1.40;;
20802;SDS011;10562;-33.856;151.182;2022-09-03T03:21:19;7.85;;;1.48;;
20802;SDS011;10562;-33.856;151.182;2022-09-03T03:23:49;7.28;;;1.40;;
20802;SDS011;10562;-33.856;151.182;2022-09-03T03:26:20;4.30;;;1.10;;
20802;SDS011;10562;-33.856;151.182;2022-09-03T03:28:54;7.35;;;1.50;;
20802;SDS011;10562;-33.856;151.182;2022-09-03T03:31:26;7.60;;;1.40;;
20802;SDS011;10562;-33.856;151.182;2022-09-03T03:34:00;12.63;;;1.88;;
20802;SDS011;10562;-33.856;151.182;2022-09-03T03:36:31;5.05;;;1.20;;
20802;SDS011;10562;-33.856;151.182;2022-09-03T03:39:03;6.75;;;1.20;;
20802;SDS011;10562;-33.856;151.182;2022-09-03T03:41:34;5.93;;;1.73;;
20802;SDS011;10562;-33.856;151.182;2022-09-03T03:44:05;8.93;;;1.73;;
20802;SDS011;10562;-33.856;151.182;2022-09-03T03:46:37;12.52;;;2.10;;
20802;SDS011;10562;-33.856;151.182;2022-09-03T03:49:10;6.95;;;1.40;;
20802;SDS011;10562;-33.856;151.182;2022-09-03T03:51:41;13.65;;;1.60;;
20802;SDS011;10562;-33.856;151.182;2022-09-03T03:54:12;6.30;;;1.30;;
20802;SDS011;10562;-33.856;151.182;2022-09-03T03:56:43;6.85;;;1.35;;
20802;SDS011;10562;-33.856;151.182;2022-09-03T03:59:13;7.63;;;1.20;;
20802;SDS011;10562;-33.856;151.182;2022-09-03T04:01:44;10.68;;;1.45;;
20802;SDS011;10562;-33.856;151.182;2022-09-03T04:04:18;15.60;;;2.08;;
20802;SDS011;10562;-33.856;151.182;2022-09-03T04:06:48;11.07;;;1.70;;
20802;SDS011;10562;-33.856;151.182;2022-09-03T04:09:19;12.75;;;1.70;;
20802;SDS011;10562;-33.856;151.182;2022-09-03T04:11:50;9.25;;;1.83;;
20802;SDS011;10562;-33.856;151.182;2022-09-03T04:14:23;9.50;;;1.67;;
20802;SDS011;10562;-33.856;151.182;2022-09-03T04:16:54;4.55;;;1.73;;
20802;SDS011;10562;-33.856;151.182;2022-09-03T04:19:26;8.55;;;1.77;;
20802;SDS011;10562;-33.856;151.182;2022-09-03T04:21:57;8.15;;;2.15;;
20802;SDS011;10562;-33.856;151.182;2022-09-03T04:24:28;8.15;;;2.00;;
20802;SDS011;10562;-33.856;151.182;2022-09-03T04:26:59;7.82;;;2.63;;
20802;SDS011;10562;-33.856;151.182;2022-09-03T04:29:30;14.23;;;4.63;;
20802;SDS011;10562;-33.856;151.182;2022-09-03T04:32:01;13.65;;;6.75;;
20802;SDS011;10562;-33.856;151.182;2022-09-03T04:34:49;14.10;;;9.63;;
20802;SDS011;10562;-33.856;151.182;2022-09-03T04:37:19;16.20;;;11.23;;
20802;SDS011;10562;-33.856;151.182;2022-09-03T04:39:50;19.58;;;11.50;;
20802;SDS011;10562;-33.856;151.182;2022-09-03T04:42:21;22.50;;;12.65;;
20802;SDS011;10562;-33.856;151.182;2022-09-03T04:44:52;21.35;;;13.88;;
20802;SDS011;10562;-33.856;151.182;2022-09-03T04:47:22;21.98;;;17.25;;
20802;SDS011;10562;-33.856;151.182;2022-09-03T04:49:55;26.40;;;18.92;;
20802;SDS011;10562;-33.856;151.182;2022-09-03T04:52:27;19.70;;;17.65;;
20802;SDS011;10562;-33.856;151.182;2022-09-03T04:54:58;21.75;;;15.05;;
20802;SDS011;10562;-33.856;151.182;2022-09-03T04:57:29;19.65;;;11.48;;
20802;SDS011;10562;-33.856;151.182;2022-09-03T05:00:03;14.90;;;8.98;;
20802;SDS011;10562;-33.856;151.182;2022-09-03T05:02:36;19.95;;;11.02;;
20802;SDS011;10562;-33.856;151.182;2022-09-03T05:05:09;21.55;;;10.88;;
20802;SDS011;10562;-33.856;151.182;2022-09-03T05:07:40;16.88;;;8.07;;
20802;SDS011;10562;-33.856;151.182;2022-09-03T05:10:12;13.07;;;5.97;;
20802;SDS011;10562;-33.856;151.182;2022-09-03T05:12:45;15.90;;;5.35;;
20802;SDS011;10562;-33.856;151.182;2022-09-03T05:15:25;9.05;;;3.88;;
20802;SDS011;10562;-33.856;151.182;2022-09-03T05:17:56;17.05;;;5.95;;
20802;SDS011;10562;-33.856;151.182;2022-09-03T05:20:30;11.85;;;6.80;;
20802;SDS011;10562;-33.856;151.182;2022-09-03T05:23:01;13.77;;;7.25;;
20802;SDS011;10562;-33.856;151.182;2022-09-03T05:25:32;15.45;;;7.30;;
20802;SDS011;10562;-33.856;151.182;2022-09-03T05:28:03;17.52;;;8.88;;
20802;SDS011;10562;-33.856;151.182;2022-09-03T05:30:34;16.95;;;8.93;;
20802;SDS011;10562;-33.856;151.182;2022-09-03T05:33:05;15.32;;;11.27;;
20802;SDS011;10562;-33.856;151.182;2022-09-03T05:35:37;20.98;;;13.60;;
20802;SDS011;10562;-33.856;151.182;2022-09-03T05:38:08;27.73;;;15.25;;
20802;SDS011;10562;-33.856;151.182;2022-09-03T05:40:39;24.02;;;14.73;;
20802;SDS011;10562;-33.856;151.182;2022-09-03T05:43:10;21.70;;;12.85;;
20802;SDS011;10562;-33.856;151.182;2022-09-03T05:45:42;14.20;;;5.90;;
20802;SDS011;10562;-33.856;151.182;2022-09-03T05:48:13;9.77;;;3.40;;
20802;SDS011;10562;-33.856;151.182;2022-09-03T05:50:45;9.80;;;2.88;;
20802;SDS011;10562;-33.856;151.182;2022-09-03T05:53:16;12.23;;;2.60;;
20802;SDS011;10562;-33.856;151.182;2022-09-03T05:55:54;6.03;;;1.98;;
20802;SDS011;10562;-33.856;151.182;2022-09-03T05:58:24;10.52;;;1.75;;
20802;SDS011;10562;-33.856;151.182;2022-09-03T06:01:01;7.03;;;1.35;;
20802;SDS011;10562;-33.856;151.182;2022-09-03T06:03:40;8.75;;;1.55;;
20802;SDS011;10562;-33.856;151.182;2022-09-03T06:06:14;8.55;;;1.50;;
20802;SDS011;10562;-33.856;151.182;2022-09-03T06:08:44;6.95;;;1.20;;
20802;SDS011;10562;-33.856;151.182;2022-09-03T06:11:18;10.00;;;1.30;;
20802;SDS011;10562;-33.856;151.182;2022-09-03T06:13:52;8.57;;;1.33;;
20802;SDS011;10562;-33.856;151.182;2022-09-03T06:16:22;8.27;;;1.10;;
20802;SDS011;10562;-33.856;151.182;2022-09-03T06:18:53;10.35;;;1.42;;
20802;SDS011;10562;-33.856;151.182;2022-09-03T06:21:26;5.90;;;1.20;;
20802;SDS011;10562;-33.856;151.182;2022-09-03T06:23:57;3.80;;;1.00;;
20802;SDS011;10562;-33.856;151.182;2022-09-03T06:26:28;7.55;;;1.52;;
20802;SDS011;10562;-33.856;151.182;2022-09-03T06:28:59;6.75;;;1.30;;
20802;SDS011;10562;-33.856;151.182;2022-09-03T06:31:30;8.48;;;1.60;;
20802;SDS011;10562;-33.856;151.182;2022-09-03T06:34:00;11.52;;;1.70;;
20802;SDS011;10562;-33.856;151.182;2022-09-03T06:36:33;14.65;;;1.77;;
20802;SDS011;10562;-33.856;151.182;2022-09-03T06:39:04;9.80;;;1.38;;
20802;SDS011;10562;-33.856;151.182;2022-09-03T06:41:35;11.15;;;1.50;;
20802;SDS011;10562;-33.856;151.182;2022-09-03T06:44:06;13.98;;;1.50;;
20802;SDS011;10562;-33.856;151.182;2022-09-03T06:46:39;10.52;;;1.50;;
20802;SDS011;10562;-33.856;151.182;2022-09-03T06:49:10;12.00;;;1.60;;
20802;SDS011;10562;-33.856;151.182;2022-09-03T06:51:43;13.40;;;2.22;;
20802;SDS011;10562;-33.856;151.182;2022-09-03T06:54:14;10.68;;;1.80;;
20802;SDS011;10562;-33.856;151.182;2022-09-03T06:56:44;9.02;;;1.50;;
20802;SDS011;10562;-33.856;151.182;2022-09-03T06:59:15;13.30;;;1.80;;
20802;SDS011;10562;-33.856;151.182;2022-09-03T07:01:46;11.52;;;1.40;;
20802;SDS011;10562;-33.856;151.182;2022-09-03T07:04:17;9.18;;;1.63;;
20802;SDS011;10562;-33.856;151.182;2022-09-03T07:06:52;11.95;;;1.38;;
20802;SDS011;10562;-33.856;151.182;2022-09-03T07:09:22;7.93;;;1.50;;
20802;SDS011;10562;-33.856;151.182;2022-09-03T07:11:53;11.57;;;1.50;;
20802;SDS011;10562;-33.856;151.182;2022-09-03T07:14:24;8.00;;;1.40;;
20802;SDS011;10562;-33.856;151.182;2022-09-03T07:16:55;8.10;;;1.45;;
20802;SDS011;10562;-33.856;151.182;2022-09-03T07:19:26;9.77;;;1.77;;
20802;SDS011;10562;-33.856;151.182;2022-09-03T07:21:58;7.97;;;1.70;;
20802;SDS011;10562;-33.856;151.182;2022-09-03T07:24:29;10.27;;;1.10;;
20802;SDS011;10562;-33.856;151.182;2022-09-03T07:27:00;7.68;;;1.67;;
20802;SDS011;10562;-33.856;151.182;2022-09-03T07:29:32;6.68;;;1.05;;
20802;SDS011;10562;-33.856;151.182;2022-09-03T07:32:03;8.55;;;1.52;;
20802;SDS011;10562;-33.856;151.182;2022-09-03T07:34:33;10.43;;;1.50;;
20802;SDS011;10562;-33.856;151.182;2022-09-03T07:37:06;7.43;;;1.10;;
20802;SDS011;10562;-33.856;151.182;2022-09-03T07:39:37;5.40;;;1.10;;
20802;SDS011;10562;-33.856;151.182;2022-09-03T07:42:08;11.00;;;2.80;;
20802;SDS011;10562;-33.856;151.182;2022-09-03T07:44:42;6.47;;;1.90;;
20802;SDS011;10562;-33.856;151.182;2022-09-03T07:47:13;9.02;;;1.48;;
20802;SDS011;10562;-33.856;151.182;2022-09-03T07:49:45;6.90;;;1.30;;
20802;SDS011;10562;-33.856;151.182;2022-09-03T07:52:17;10.18;;;1.30;;
20802;SDS011;10562;-33.856;151.182;2022-09-03T07:54:48;6.72;;;1.58;;
20802;SDS011;10562;-33.856;151.182;2022-09-03T07:57:19;10.82;;;1.75;;
20802;SDS011;10562;-33.856;151.182;2022-09-03T07:59:50;9.73;;;1.27;;
20802;SDS011;10562;-33.856;151.182;2022-09-03T08:02:21;7.65;;;1.40;;
20802;SDS011;10562;-33.856;151.182;2022-09-03T08:04:51;5.10;;;1.40;;
20802;SDS011;10562;-33.856;151.182;2022-09-03T08:07:24;7.32;;;1.40;;
20802;SDS011;10562;-33.856;151.182;2022-09-03T08:09:56;6.32;;;1.23;;
20802;SDS011;10562;-33.856;151.182;2022-09-03T08:12:27;9.85;;;1.48;;
20802;SDS011;10562;-33.856;151.182;2022-09-03T08:14:58;5.45;;;1.17;;
20802;SDS011;10562;-33.856;151.182;2022-09-03T08:17:30;6.68;;;1.58;;
20802;SDS011;10562;-33.856;151.182;2022-09-03T08:20:01;8.10;;;1.40;;
20802;SDS011;10562;-33.856;151.182;2022-09-03T08:22:35;5.57;;;1.30;;
20802;SDS011;10562;-33.856;151.182;2022-09-03T08:25:06;8.43;;;1.40;;
20802;SDS011;10562;-33.856;151.182;2022-09-03T08:27:37;5.30;;;1.00;;
20802;SDS011;10562;-33.856;151.182;2022-09-03T08:30:08;7.15;;;1.00;;
20802;SDS011;10562;-33.856;151.182;2022-09-03T08:32:39;10.32;;;1.80;;
20802;SDS011;10562;-33.856;151.182;2022-09-03T08:35:10;10.10;;;1.70;;
20802;SDS011;10562;-33.856;151.182;2022-09-03T08:37:43;6.07;;;1.40;;
20802;SDS011;10562;-33.856;151.182;2022-09-03T08:40:16;7.30;;;1.60;;
20802;SDS011;10562;-33.856;151.182;2022-09-03T08:43:02;6.80;;;1.60;;
20802;SDS011;10562;-33.856;151.182;2022-09-03T08:45:43;10.40;;;3.50;;
20802;SDS011;10562;-33.856;151.182;2022-09-03T08:48:16;14.93;;;4.03;;
20802;SDS011;10562;-33.856;151.182;2022-09-03T08:50:51;6.43;;;1.52;;
20802;SDS011;10562;-33.856;151.182;2022-09-03T08:53:28;7.18;;;1.60;;
20802;SDS011;10562;-33.856;151.182;2022-09-03T08:56:06;13.50;;;2.90;;
20802;SDS011;10562;-33.856;151.182;2022-09-03T08:58:39;6.95;;;2.40;;
20802;SDS011;10562;-33.856;151.182;2022-09-03T09:01:11;9.50;;;2.20;;
20802;SDS011;10562;-33.856;151.182;2022-09-03T09:03:53;7.63;;;2.53;;
20802;SDS011;10562;-33.856;151.182;2022-09-03T09:06:34;6.57;;;2.45;;
20802;SDS011;10562;-33.856;151.182;2022-09-03T09:09:15;8.63;;;3.05;;
20802;SDS011;10562;-33.856;151.182;2022-09-03T09:12:00;11.88;;;3.15;;
20802;SDS011;10562;-33.856;151.182;2022-09-03T09:14:42;9.18;;;2.90;;
20802;SDS011;10562;-33.856;151.182;2022-09-03T09:17:28;16.70;;;3.63;;
20802;SDS011;10562;-33.856;151.182;2022-09-03T09:20:12;12.85;;;3.88;;
20802;SDS011;10562;-33.856;151.182;2022-09-03T09:22:48;17.08;;;5.68;;
20802;SDS011;10562;-33.856;151.182;2022-09-03T09:25:24;16.55;;;6.63;;
20802;SDS011;10562;-33.856;151.182;2022-09-03T09:27:58;19.25;;;8.88;;
20802;SDS011;10562;-33.856;151.182;2022-09-03T09:30:31;23.83;;;10.32;;
20802;SDS011;10562;-33.856;151.182;2022-09-03T09:33:02;19.25;;;12.10;;
20802;SDS011;10562;-33.856;151.182;2022-09-03T09:35:33;19.00;;;10.57;;
20802;SDS011;10562;-33.856;151.182;2022-09-03T09:38:07;16.30;;;10.05;;
20802;SDS011;10562;-33.856;151.182;2022-09-03T09:40:41;17.10;;;10.98;;
20802;SDS011;10562;-33.856;151.182;2022-09-03T09:43:13;16.25;;;8.93;;
20802;SDS011;10562;-33.856;151.182;2022-09-03T09:45:46;16.35;;;8.93;;
20802;SDS011;10562;-33.856;151.182;2022-09-03T09:48:20;11.57;;;9.27;;
20802;SDS011;10562;-33.856;151.182;2022-09-03T09:51:06;13.45;;;7.70;;
20802;SDS011;10562;-33.856;151.182;2022-09-03T09:53:40;10.32;;;6.65;;
20802;SDS011;10562;-33.856;151.182;2022-09-03T09:56:21;10.70;;;6.07;;
20802;SDS011;10562;-33.856;151.182;2022-09-03T09:59:01;9.23;;;5.78;;
20802;SDS011;10562;-33.856;151.182;2022-09-03T10:01:33;12.27;;;6.00;;
20802;SDS011;10562;-33.856;151.182;2022-09-03T10:04:09;11.77;;;5.40;;
20802;SDS011;10562;-33.856;151.182;2022-09-03T10:06:41;11.48;;;4.75;;
20802;SDS011;10562;-33.856;151.182;2022-09-03T10:09:23;6.43;;;4.15;;
20802;SDS011;10562;-33.856;151.182;2022-09-03T10:12:01;9.38;;;3.40;;
20802;SDS011;10562;-33.856;151.182;2022-09-03T10:14:40;9.55;;;1.98;;
20802;SDS011;10562;-33.856;151.182;2022-09-03T10:17:14;10.27;;;2.38;;
20802;SDS011;10562;-33.856;151.182;2022-09-03T10:19:51;8.43;;;1.83;;
20802;SDS011;10562;-33.856;151.182;2022-09-03T10:22:46;7.22;;;1.58;;
20802;SDS011;10562;-33.856;151.182;2022-09-03T10:25:22;9.25;;;1.60;;
20802;SDS011;10562;-33.856;151.182;2022-09-03T10:28:00;4.63;;;1.52;;
20802;SDS011;10562;-33.856;151.182;2022-09-03T10:30:31;8.13;;;1.98;;
20802;SDS011;10562;-33.856;151.182;2022-09-03T10:33:14;9.32;;;2.17;;
20802;SDS011;10562;-33.856;151.182;2022-09-03T10:35:51;7.07;;;2.30;;
20802;SDS011;10562;-33.856;151.182;2022-09-03T10:38:32;10.65;;;1.60;;
20802;SDS011;10562;-33.856;151.182;2022-09-03T10:41:07;6.25;;;1.13;;
20802;SDS011;10562;-33.856;151.182;2022-09-03T10:44:12;7.20;;;1.30;;
20802;SDS011;10562;-33.856;151.182;2022-09-03T10:47:03;9.15;;;1.58;;
20802;SDS011;10562;-33.856;151.182;2022-09-03T10:49:50;6.38;;;1.30;;
20802;SDS011;10562;-33.856;151.182;2022-09-03T10:52:30;6.55;;;1.30;;
20802;SDS011;10562;-33.856;151.182;2022-09-03T10:55:13;4.53;;;1.08;;
20802;SDS011;10562;-33.856;151.182;2022-09-03T10:57:53;3.75;;;0.82;;
20802;SDS011;10562;-33.856;151.182;2022-09-03T11:00:46;4.75;;;1.27;;
20802;SDS011;10562;-33.856;151.182;2022-09-03T11:03:29;6.07;;;1.00;;
20802;SDS011;10562;-33.856;151.182;2022-09-03T11:06:15;5.00;;;1.05;;
20802;SDS011;10562;-33.856;151.182;2022-09-03T11:08:52;5.13;;;1.08;;
20802;SDS011;10562;-33.856;151.182;2022-09-03T11:11:28;4.43;;;1.15;;
20802;SDS011;10562;-33.856;151.182;2022-09-03T11:14:03;4.78;;;1.02;;
20802;SDS011;10562;-33.856;151.182;2022-09-03T11:16:40;5.18;;;0.93;;
20802;SDS011;10562;-33.856;151.182;2022-09-03T11:19:15;5.70;;;1.00;;
20802;SDS011;10562;-33.856;151.182;2022-09-03T11:21:50;3.03;;;0.80;;
20802;SDS011;10562;-33.856;151.182;2022-09-03T11:24:22;4.45;;;0.93;;
20802;SDS011;10562;-33.856;151.182;2022-09-03T11:26:56;4.80;;;0.90;;
20802;SDS011;10562;-33.856;151.182;2022-09-03T11:29:34;7.38;;;1.20;;
20802;SDS011;10562;-33.856;151.182;2022-09-03T11:32:15;9.85;;;0.95;;
20802;SDS011;10562;-33.856;151.182;2022-09-03T11:34:52;8.40;;;1.10;;
20802;SDS011;10562;-33.856;151.182;2022-09-03T11:37:24;3.50;;;1.00;;
20802;SDS011;10562;-33.856;151.182;2022-09-03T11:39:56;9.38;;;1.27;;
20802;SDS011;10562;-33.856;151.182;2022-09-03T11:42:33;4.75;;;1.05;;
20802;SDS011;10562;-33.856;151.182;2022-09-03T11:45:13;5.63;;;1.00;;
20802;SDS011;10562;-33.856;151.182;2022-09-03T11:47:53;7.15;;;1.00;;
20802;SDS011;10562;-33.856;151.182;2022-09-03T11:50:24;4.80;;;0.80;;
20802;SDS011;10562;-33.856;151.182;2022-09-03T11:53:07;5.10;;;1.00;;
20802;SDS011;10562;-33.856;151.182;2022-09-03T11:55:51;7.15;;;1.02;;
20802;SDS011;10562;-33.856;151.182;2022-09-03T11:58:24;8.45;;;1.27;;
20802;SDS011;10562;-33.856;151.182;2022-09-03T12:00:58;6.57;;;1.00;;
20802;SDS011;10562;-33.856;151.182;2022-09-03T12:03:37;6.60;;;1.08;;
20802;SDS011;10562;-33.856;151.182;2022-09-03T12:09:23;5.30;;;1.30;;
20802;SDS011;10562;-33.856;151.182;2022-09-03T12:12:23;9.45;;;1.20;;
20802;SDS011;10562;-33.856;151.182;2022-09-03T12:15:16;6.35;;;0.98;;
20802;SDS011;10562;-33.856;151.182;2022-09-03T12:17:56;6.18;;;1.58;;
20802;SDS011;10562;-33.856;151.182;2022-09-03T12:21:01;10.38;;;1.52;;
20802;SDS011;10562;-33.856;151.182;2022-09-03T12:23:34;8.50;;;1.50;;
20802;SDS011;10562;-33.856;151.182;2022-09-03T12:26:11;9.18;;;1.70;;
20802;SDS011;10562;-33.856;151.182;2022-09-03T12:28:45;9.02;;;1.65;;
20802;SDS011;10562;-33.856;151.182;2022-09-03T12:31:19;6.82;;;1.40;;
20802;SDS011;10562;-33.856;151.182;2022-09-03T12:33:54;6.40;;;1.33;;
20802;SDS011;10562;-33.856;151.182;2022-09-03T12:36:35;4.00;;;1.45;;
20802;SDS011;10562;-33.856;151.182;2022-09-03T12:39:08;5.25;;;1.00;;
20802;SDS011;10562;-33.856;151.182;2022-09-03T12:41:45;5.97;;;1.13;;
20802;SDS011;10562;-33.856;151.182;2022-09-03T12:44:24;5.78;;;1.25;;
20802;SDS011;10562;-33.856;151.182;2022-09-03T12:47:00;7.32;;;1.60;;
20802;SDS011;10562;-33.856;151.182;2022-09-03T12:49:36;5.65;;;1.10;;
20802;SDS011;10562;-33.856;151.182;2022-09-03T12:52:10;6.65;;;1.10;;
20802;SDS011;10562;-33.856;151.182;2022-09-03T12:54:47;8.23;;;1.10;;
20802;SDS011;10562;-33.856;151.182;2022-09-03T12:57:21;6.82;;;1.20;;
20802;SDS011;10562;-33.856;151.182;2022-09-03T12:59:57;6.82;;;1.00;;
20802;SDS011;10562;-33.856;151.182;2022-09-03T13:02:35;3.58;;;0.90;;
20802;SDS011;10562;-33.856;151.182;2022-09-03T13:05:09;5.57;;;1.00;;
20802;SDS011;10562;-33.856;151.182;2022-09-03T13:07:48;5.97;;;1.10;;
20802;SDS011;10562;-33.856;151.182;2022-09-03T13:10:25;6.95;;;0.80;;
20802;SDS011;10562;-33.856;151.182;2022-09-03T13:12:57;3.17;;;0.70;;
20802;SDS011;10562;-33.856;151.182;2022-09-03T13:15:29;4.75;;;0.90;;
20802;SDS011;10562;-33.856;151.182;2022-09-03T13:18:06;10.60;;;1.48;;
20802;SDS011;10562;-33.856;151.182;2022-09-03T13:20:48;9.65;;;1.80;;
20802;SDS011;10562;-33.856;151.182;2022-09-03T13:23:41;13.13;;;1.60;;
20802;SDS011;10562;-33.856;151.182;2022-09-03T13:26:29;9.90;;;1.70;;
20802;SDS011;10562;-33.856;151.182;2022-09-03T13:29:36;7.65;;;1.92;;
20802;SDS011;10562;-33.856;151.182;2022-09-03T13:32:21;5.53;;;2.13;;
20802;SDS011;10562;-33.856;151.182;2022-09-03T13:34:57;7.30;;;3.40;;
20802;SDS011;10562;-33.856;151.182;2022-09-03T13:37:36;13.88;;;5.90;;
20802;SDS011;10562;-33.856;151.182;2022-09-03T13:40:15;20.58;;;18.52;;
20802;SDS011;10562;-33.856;151.182;2022-09-03T13:42:52;34.15;;;30.65;;
20802;SDS011;10562;-33.856;151.182;2022-09-03T13:45:30;36.30;;;32.83;;
20802;SDS011;10562;-33.856;151.182;2022-09-03T13:48:07;45.47;;;41.58;;
20802;SDS011;10562;-33.856;151.182;2022-09-03T13:51:00;83.22;;;76.78;;
20802;SDS011;10562;-33.856;151.182;2022-09-03T13:53:41;214.48;;;199.38;;
20802;SDS011;10562;-33.856;151.182;2022-09-03T13:56:27;273.05;;;254.88;;
20802;SDS011;10562;-33.856;151.182;2022-09-03T13:59:08;300.75;;;280.67;;
20802;SDS011;10562;-33.856;151.182;2022-09-03T14:01:57;302.73;;;283.23;;
20802;SDS011;10562;-33.856;151.182;2022-09-03T14:04:41;308.83;;;287.83;;
20802;SDS011;10562;-33.856;151.182;2022-09-03T14:07:18;356.77;;;331.98;;
20802;SDS011;10562;-33.856;151.182;2022-09-03T14:09:55;317.10;;;293.80;;
20802;SDS011;10562;-33.856;151.182;2022-09-03T14:12:38;340.75;;;317.48;;
20802;SDS011;10562;-33.856;151.182;2022-09-03T14:15:15;336.98;;;313.63;;
20802;SDS011;10562;-33.856;151.182;2022-09-03T14:17:54;334.05;;;311.00;;
20802;SDS011;10562;-33.856;151.182;2022-09-03T14:20:31;329.85;;;307.02;;
20802;SDS011;10562;-33.856;151.182;2022-09-03T14:23:15;315.05;;;294.13;;
20802;SDS011;10562;-33.856;151.182;2022-09-03T14:25:52;304.10;;;283.65;;
20802;SDS011;10562;-33.856;151.182;2022-09-03T14:28:29;283.40;;;264.70;;
20802;SDS011;10562;-33.856;151.182;2022-09-03T14:31:06;294.83;;;275.25;;
20802;SDS011;10562;-33.856;151.182;2022-09-03T14:33:49;285.48;;;266.13;;
20802;SDS011;10562;-33.856;151.182;2022-09-03T14:36:26;275.48;;;256.73;;
20802;SDS011;10562;-33.856;151.182;2022-09-03T14:39:12;281.40;;;262.80;;
20802;SDS011;10562;-33.856;151.182;2022-09-03T14:51:03;289.90;;;270.58;;
20802;SDS011;10562;-33.856;151.182;2022-09-03T14:54:01;299.23;;;278.38;;
20802;SDS011;10562;-33.856;151.182;2022-09-03T14:56:59;303.00;;;282.83;;
20802;SDS011;10562;-33.856;151.182;2022-09-03T14:59:54;303.48;;;283.15;;
20802;SDS011;10562;-33.856;151.182;2022-09-03T15:02:42;298.92;;;278.67;;